Time;durP1;ratioP1;P1;durP2;ratioP2;P2;SDS_P1;SDS_P2;PMS_P1;PMS_P2;Temp;Humidity;BMP_temperature;BMP_pressure;BME280_temperature;BME280_humidity;BME280_pressure;Samples;Min_cycle;Max_cycle;Signal;HPM_P1;HPM_P2
2023/08/07 00:00:37;;;;;;;7.30;2.90;;;15.70;99.90;;;;;;5046347;28;20803;-73
2023/08/07 00:03:02;;;;;;;9.95;2.92;;;15.60;99.90;;;;;;5047248;28;20057;-72
2023/08/07 00:05:30;;;;;;;5.82;2.80;;;15.70;99.90;;;;;;5040147;28;21664;-72
2023/08/07 00:07:56;;;;;;;8.15;2.55;;;15.60;99.90;;;;;;5035001;28;21076;-72
2023/08/07 00:10:22;;;;;;;6.10;2.30;;;15.60;99.90;;;;;;5038845;28;20109;-72
2023/08/07 00:12:48;;;;;;;7.95;2.45;;;15.60;99.90;;;;;;5072857;28;21696;-72
2023/08/07 00:15:14;;;;;;;6.57;2.33;;;15.60;99.90;;;;;;5068331;28;20052;-72
2023/08/07 00:17:40;;;;;;;8.05;2.22;;;15.50;99.90;;;;;;5033974;28;20037;-72
2023/08/07 00:20:07;;;;;;;8.30;2.35;;;15.50;99.90;;;;;;5018446;28;20055;-73
2023/08/07 00:22:33;;;;;;;7.00;2.00;;;15.50;99.90;;;;;;5061817;28;20045;-73
2023/08/07 00:24:58;;;;;;;7.72;2.83;;;15.50;99.90;;;;;;5079889;28;20047;-73
2023/08/07 00:27:24;;;;;;;5.60;2.03;;;15.50;99.90;;;;;;5079931;28;20049;-73
2023/08/07 00:29:50;;;;;;;5.70;2.20;;;15.40;99.90;;;;;;5047013;28;20140;-72
2023/08/07 00:32:15;;;;;;;6.85;2.15;;;15.40;99.90;;;;;;5032042;28;20074;-72
2023/08/07 00:34:41;;;;;;;4.65;2.20;;;15.40;99.90;;;;;;5025910;28;20459;-72
2023/08/07 00:37:07;;;;;;;4.70;2.08;;;15.40;99.90;;;;;;5027773;28;20125;-72
2023/08/07 00:39:33;;;;;;;6.68;2.45;;;15.30;99.90;;;;;;5044001;28;20049;-72
2023/08/07 00:41:58;;;;;;;4.80;1.90;;;15.30;99.90;;;;;;5045759;28;20044;-72
2023/08/07 00:44:24;;;;;;;5.97;2.30;;;15.30;99.90;;;;;;5036322;28;20041;-72
2023/08/07 00:46:51;;;;;;;4.97;2.00;;;15.30;99.90;;;;;;5035855;28;20114;-73
2023/08/07 00:49:18;;;;;;;9.30;2.08;;;15.30;99.90;;;;;;5033193;28;20457;-72
2023/08/07 00:51:44;;;;;;;5.90;2.00;;;15.30;99.90;;;;;;5068813;28;20044;-72
2023/08/07 00:54:14;;;;;;;6.25;2.03;;;15.30;99.90;;;;;;5046709;28;20055;-72
2023/08/07 00:56:40;;;;;;;7.50;1.90;;;15.30;99.90;;;;;;5073000;28;20044;-73
2023/08/07 00:59:06;;;;;;;5.22;2.00;;;15.20;99.90;;;;;;5045922;28;20052;-72
2023/08/07 01:01:32;;;;;;;6.53;2.20;;;15.20;99.90;;;;;;5077460;28;20420;-72
2023/08/07 01:03:58;;;;;;;6.18;2.13;;;15.20;99.90;;;;;;5045871;28;20131;-72
2023/08/07 01:06:23;;;;;;;7.22;2.30;;;15.20;99.90;;;;;;5079990;28;20394;-72
2023/08/07 01:08:50;;;;;;;4.90;2.33;;;15.10;99.90;;;;;;5062857;28;20179;-72
2023/08/07 01:11:45;;;;;;;19.17;2.78;;;15.10;99.90;;;;;;5045492;28;20051;-72
2023/08/07 01:14:25;;;;;;;8.82;3.05;;;15.10;99.90;;;;;;5047253;28;20053;-72
2023/08/07 01:16:52;;;;;;;8.45;2.17;;;15.10;99.90;;;;;;5045471;28;20049;-72
2023/08/07 01:19:28;;;;;;;7.22;2.25;;;15.10;99.90;;;;;;5044467;28;20040;-72
2023/08/07 01:22:11;;;;;;;5.90;1.80;;;15.10;99.90;;;;;;5046562;28;20043;-73
2023/08/07 01:24:39;;;;;;;6.53;1.85;;;15.00;99.90;;;;;;5046426;28;20045;-72
2023/08/07 01:27:13;;;;;;;5.00;1.90;;;15.00;99.90;;;;;;5045556;28;20051;-73
2023/08/07 01:30:05;;;;;;;6.07;2.20;;;15.00;99.90;;;;;;5045512;28;20701;-73
2023/08/07 01:32:50;;;;;;;7.88;1.90;;;15.00;99.90;;;;;;5041145;28;20103;-73
2023/08/07 01:35:18;;;;;;;8.95;2.22;;;14.90;99.90;;;;;;5031842;28;20129;-73
2023/08/07 01:37:46;;;;;;;10.05;2.20;;;14.90;99.90;;;;;;5049233;28;20052;-73
2023/08/07 01:40:13;;;;;;;7.75;2.00;;;14.90;99.90;;;;;;5049631;28;20057;-73
2023/08/07 01:42:39;;;;;;;7.63;2.17;;;14.90;99.90;;;;;;5031960;28;20537;-73
2023/08/07 01:45:06;;;;;;;10.82;2.30;;;14.90;99.90;;;;;;5049341;28;20053;-73
2023/08/07 01:47:32;;;;;;;10.85;2.45;;;14.90;99.90;;;;;;5032131;28;20049;-73
2023/08/07 01:49:57;;;;;;;10.38;2.50;;;14.80;99.90;;;;;;5049089;28;20044;-73
2023/08/07 01:52:23;;;;;;;9.10;2.30;;;14.80;99.90;;;;;;5049024;28;20045;-73
2023/08/07 01:54:49;;;;;;;12.60;2.20;;;14.80;99.90;;;;;;5032942;28;20098;-73
2023/08/07 01:57:15;;;;;;;12.50;2.50;;;14.80;99.90;;;;;;5048362;28;20037;-73
2023/08/07 01:59:40;;;;;;;8.00;1.90;;;14.80;99.90;;;;;;5049186;28;20066;-72
2023/08/07 02:02:06;;;;;;;10.20;2.00;;;14.80;99.90;;;;;;5032162;28;20131;-73
2023/08/07 02:04:32;;;;;;;11.13;2.38;;;14.80;99.90;;;;;;5050328;28;20056;-73
2023/08/07 02:06:58;;;;;;;10.18;2.20;;;14.80;99.90;;;;;;5045728;28;20044;-73
2023/08/07 02:09:24;;;;;;;12.18;2.17;;;14.70;99.90;;;;;;5047914;28;20055;-73
2023/08/07 02:11:49;;;;;;;7.53;2.10;;;14.50;99.90;;;;;;5048684;28;20124;-73
2023/08/07 02:14:15;;;;;;;14.48;2.95;;;14.70;99.90;;;;;;5050381;28;20110;-73
2023/08/07 02:16:41;;;;;;;9.00;2.22;;;14.70;99.90;;;;;;5048427;28;20045;-70
2023/08/07 02:19:06;;;;;;;10.18;2.03;;;14.70;99.90;;;;;;5049174;28;20051;-71
2023/08/07 02:21:32;;;;;;;14.43;2.55;;;14.70;99.90;;;;;;5032043;28;20044;-71
2023/08/07 02:23:58;;;;;;;10.23;2.03;;;14.70;99.90;;;;;;5048891;28;20383;-69
2023/08/07 02:26:24;;;;;;;12.75;2.63;;;14.70;99.90;;;;;;5049519;28;20053;-71
2023/08/07 02:28:50;;;;;;;7.88;1.90;;;14.60;99.90;;;;;;5048453;28;20576;-71
2023/08/07 02:31:15;;;;;;;15.23;2.53;;;14.70;99.90;;;;;;5032865;28;20502;-73
2023/08/07 02:33:41;;;;;;;7.85;2.25;;;14.60;99.90;;;;;;5048331;28;20059;-73
2023/08/07 02:36:07;;;;;;;9.68;2.20;;;14.70;99.90;;;;;;5048664;28;20482;-72
2023/08/07 02:38:33;;;;;;;13.05;2.42;;;14.60;99.90;;;;;;5048362;28;20128;-73
2023/08/07 02:40:59;;;;;;;11.65;2.13;;;14.60;99.90;;;;;;5048454;28;20120;-72
2023/08/07 02:43:26;;;;;;;10.43;2.30;;;14.60;99.90;;;;;;5048742;28;20048;-73
2023/08/07 02:45:51;;;;;;;14.35;3.03;;;14.60;99.90;;;;;;5046290;28;20144;-73
2023/08/07 02:48:17;;;;;;;12.25;2.80;;;14.60;99.90;;;;;;5047824;28;20132;-72
2023/08/07 02:50:43;;;;;;;11.65;2.50;;;14.60;99.90;;;;;;5049147;28;20044;-73
2023/08/07 02:53:09;;;;;;;12.85;3.08;;;14.60;99.90;;;;;;5048099;28;20503;-73
2023/08/07 02:55:35;;;;;;;10.75;2.53;;;14.60;99.90;;;;;;5047466;28;20074;-72
2023/08/07 02:58:01;;;;;;;8.65;3.13;;;14.60;99.90;;;;;;5043238;28;20095;-72
2023/08/07 03:00:26;;;;;;;9.35;2.50;;;14.60;99.90;;;;;;5048492;28;20033;-72
2023/08/07 03:02:52;;;;;;;9.55;2.67;;;14.60;99.90;;;;;;5047801;28;20466;-72
2023/08/07 03:05:18;;;;;;;11.70;2.45;;;14.60;99.90;;;;;;5047492;28;20410;-72
2023/08/07 03:07:44;;;;;;;13.68;2.95;;;14.60;99.90;;;;;;5048210;28;20424;-72
2023/08/07 03:10:09;;;;;;;9.80;2.50;;;14.60;99.90;;;;;;5031430;28;20657;-72
2023/08/07 03:12:35;;;;;;;13.77;2.50;;;14.60;99.90;;;;;;5048963;28;20045;-72
2023/08/07 03:15:01;;;;;;;9.80;2.58;;;14.60;99.90;;;;;;5047124;28;20048;-72
2023/08/07 03:17:26;;;;;;;7.75;2.10;;;14.60;99.90;;;;;;5047823;28;20059;-72
2023/08/07 03:19:52;;;;;;;8.65;2.33;;;14.70;99.90;;;;;;5047472;28;20045;-72
2023/08/07 03:22:18;;;;;;;9.35;2.75;;;14.70;99.90;;;;;;5048604;28;20048;-72
2023/08/07 03:24:48;;;;;;;8.13;2.28;;;14.70;99.90;;;;;;5047170;28;20045;-72
2023/08/07 03:27:14;;;;;;;9.80;2.53;;;14.70;99.90;;;;;;5048764;28;20099;-72
2023/08/07 03:29:39;;;;;;;9.30;2.42;;;14.70;99.90;;;;;;5030732;28;20044;-71
2023/08/07 03:32:05;;;;;;;8.68;3.25;;;14.70;99.90;;;;;;5048915;28;20180;-72
2023/08/07 03:34:31;;;;;;;13.70;2.78;;;14.70;99.90;;;;;;5047384;28;20533;-71
2023/08/07 03:36:59;;;;;;;9.32;2.45;;;14.70;99.90;;;;;;5047017;28;20170;-71
2023/08/07 03:39:24;;;;;;;10.23;2.70;;;14.70;99.90;;;;;;5047817;28;20048;-71
2023/08/07 03:41:50;;;;;;;11.65;2.38;;;14.70;99.90;;;;;;5048283;28;20049;-71
2023/08/07 03:44:16;;;;;;;8.18;2.55;;;14.70;99.90;;;;;;5030564;28;20126;-71
2023/08/07 03:46:42;;;;;;;9.70;2.17;;;14.70;99.90;;;;;;5046790;28;20095;-71
2023/08/07 03:49:08;;;;;;;7.82;2.20;;;14.70;99.90;;;;;;5047734;28;20049;-71
2023/08/07 03:51:33;;;;;;;13.88;2.80;;;14.80;99.90;;;;;;5030229;28;20057;-71
2023/08/07 03:53:59;;;;;;;9.45;2.33;;;14.70;99.90;;;;;;5046698;28;20398;-72
2023/08/07 03:56:25;;;;;;;10.95;2.47;;;14.80;99.90;;;;;;5029780;28;20048;-72
2023/08/07 03:58:51;;;;;;;13.23;2.80;;;14.70;99.90;;;;;;5047804;28;20178;-72
2023/08/07 04:01:16;;;;;;;11.25;3.08;;;14.80;99.90;;;;;;5046847;28;20059;-72
2023/08/07 04:03:42;;;;;;;11.82;2.70;;;14.80;99.90;;;;;;5047144;28;20037;-72
2023/08/07 04:06:10;;;;;;;21.48;3.25;;;14.80;99.90;;;;;;5030554;28;20040;-72
2023/08/07 04:08:37;;;;;;;19.50;3.75;;;14.80;99.90;;;;;;5047587;28;20053;-71
2023/08/07 04:11:04;;;;;;;13.00;2.78;;;14.80;99.90;;;;;;5048197;28;20045;-72
2023/08/07 04:13:31;;;;;;;15.88;3.42;;;14.80;99.90;;;;;;5048086;28;20033;-72
2023/08/07 04:15:57;;;;;;;13.90;3.15;;;14.80;99.90;;;;;;5046697;28;20041;-72
2023/08/07 04:18:23;;;;;;;15.82;3.20;;;14.80;99.90;;;;;;5046832;28;20115;-72
2023/08/07 04:20:53;;;;;;;16.25;3.45;;;14.80;99.90;;;;;;5047711;28;20084;-72
2023/08/07 04:23:19;;;;;;;16.52;3.08;;;14.80;99.90;;;;;;5046247;28;20102;-72
2023/08/07 04:25:47;;;;;;;19.60;3.60;;;14.80;99.90;;;;;;5046228;28;20052;-72
2023/08/07 04:28:13;;;;;;;15.50;3.75;;;14.80;99.90;;;;;;5045523;28;20094;-72
2023/08/07 04:30:39;;;;;;;12.57;2.92;;;14.80;99.90;;;;;;5045598;28;20048;-72
2023/08/07 04:33:04;;;;;;;17.52;3.35;;;14.70;99.90;;;;;;5045028;28;20036;-72
2023/08/07 04:35:31;;;;;;;17.88;3.28;;;14.80;99.90;;;;;;5045107;28;20045;-72
2023/08/07 04:37:57;;;;;;;21.85;3.75;;;14.70;99.90;;;;;;5044679;28;20033;-72
2023/08/07 04:40:22;;;;;;;16.08;3.50;;;14.70;99.90;;;;;;5046490;28;20043;-71
2023/08/07 04:42:49;;;;;;;19.75;3.53;;;14.70;99.90;;;;;;5046467;28;20505;-70
2023/08/07 04:45:15;;;;;;;14.25;3.17;;;14.70;99.90;;;;;;5046725;28;20040;-71
2023/08/07 04:47:41;;;;;;;16.48;3.28;;;14.70;99.90;;;;;;5047158;28;20609;-71
2023/08/07 04:50:08;;;;;;;15.85;3.78;;;14.60;99.90;;;;;;5045295;28;20051;-71
2023/08/07 04:52:36;;;;;;;16.15;3.22;;;14.70;99.90;;;;;;5047257;28;20045;-71
2023/08/07 04:55:02;;;;;;;12.00;3.10;;;14.70;99.90;;;;;;5046316;28;20041;-72
2023/08/07 04:57:28;;;;;;;11.32;3.15;;;14.70;99.90;;;;;;5029418;28;20068;-71
2023/08/07 04:59:53;;;;;;;11.98;3.03;;;14.70;99.90;;;;;;5029074;28;20146;-71
2023/08/07 05:02:19;;;;;;;17.75;3.05;;;14.70;99.90;;;;;;5046537;28;20041;-72
2023/08/07 05:04:45;;;;;;;14.18;3.33;;;14.70;99.90;;;;;;5079206;28;20444;-71
2023/08/07 05:07:12;;;;;;;15.63;3.53;;;14.70;99.90;;;;;;5046172;28;20080;-72
2023/08/07 05:09:38;;;;;;;20.02;4.18;;;14.70;99.90;;;;;;5033081;28;20057;-71
2023/08/07 05:12:05;;;;;;;19.98;4.72;;;14.70;99.90;;;;;;5049773;28;20125;-71
2023/08/07 05:14:31;;;;;;;15.38;3.80;;;14.70;99.90;;;;;;5050166;28;20505;-71
2023/08/07 05:16:56;;;;;;;15.43;3.83;;;14.70;99.90;;;;;;5049667;28;20052;-72
2023/08/07 05:19:22;;;;;;;20.92;3.88;;;14.70;99.90;;;;;;5049331;28;20081;-71
2023/08/07 05:21:51;;;;;;;15.43;4.22;;;14.70;99.90;;;;;;5033303;28;20498;-72
2023/08/07 05:24:17;;;;;;;21.15;4.28;;;14.70;99.90;;;;;;5032854;28;20080;-71
2023/08/07 05:26:44;;;;;;;18.40;3.78;;;14.60;99.90;;;;;;5049647;28;20051;-72
2023/08/07 05:29:09;;;;;;;18.65;4.05;;;14.60;99.90;;;;;;5050292;28;20048;-71
2023/08/07 05:31:36;;;;;;;16.90;3.95;;;14.60;99.90;;;;;;5050963;28;20052;-72
2023/08/07 05:34:02;;;;;;;22.42;4.40;;;14.60;99.90;;;;;;5049140;28;20509;-72
2023/08/07 05:36:28;;;;;;;17.05;4.00;;;14.60;99.90;;;;;;5049406;28;20040;-72
2023/08/07 05:38:55;;;;;;;18.35;4.10;;;14.60;99.90;;;;;;5049329;28;20056;-71
2023/08/07 05:41:21;;;;;;;18.73;3.92;;;14.60;99.90;;;;;;5049099;28;20547;-72
2023/08/07 05:43:47;;;;;;;16.55;3.50;;;14.60;99.90;;;;;;5049345;28;20041;-71
2023/08/07 05:46:12;;;;;;;23.77;4.10;;;14.60;99.90;;;;;;5051223;28;20049;-71
2023/08/07 05:48:38;;;;;;;21.83;4.43;;;14.60;99.90;;;;;;5048865;28;20041;-72
2023/08/07 05:51:04;;;;;;;16.17;3.25;;;14.60;99.90;;;;;;5051096;28;20056;-72
2023/08/07 05:53:30;;;;;;;17.13;3.30;;;14.60;99.90;;;;;;5032704;28;20783;-72
2023/08/07 05:55:56;;;;;;;20.08;3.60;;;14.60;99.90;;;;;;5032743;28;20049;-73
2023/08/07 05:58:22;;;;;;;16.77;2.85;;;14.60;99.90;;;;;;5044541;28;20069;-72
2023/08/07 06:00:47;;;;;;;11.82;3.00;;;14.60;99.90;;;;;;5042216;28;20072;-72
2023/08/07 06:03:13;;;;;;;16.65;3.45;;;14.60;99.90;;;;;;5050034;28;20094;-73
2023/08/07 06:05:40;;;;;;;13.05;3.50;;;14.60;99.90;;;;;;5042241;28;20040;-72
2023/08/07 06:08:05;;;;;;;15.75;3.08;;;14.60;99.90;;;;;;5073398;28;20406;-72
2023/08/07 06:10:31;;;;;;;15.93;3.35;;;14.60;99.90;;;;;;5035428;28;20045;-73
2023/08/07 06:12:57;;;;;;;15.15;3.15;;;14.60;99.90;;;;;;5038229;28;20185;-72
2023/08/07 06:15:22;;;;;;;14.60;3.42;;;14.60;99.90;;;;;;5039282;28;20051;-72
2023/08/07 06:17:50;;;;;;;13.35;2.90;;;14.60;99.90;;;;;;5036171;28;20413;-73
2023/08/07 06:20:16;;;;;;;17.65;2.70;;;14.60;99.90;;;;;;5034145;28;20583;-73
2023/08/07 06:22:42;;;;;;;15.07;3.50;;;14.60;99.90;;;;;;5039788;28;20041;-73
2023/08/07 06:25:08;;;;;;;12.63;3.22;;;14.60;99.90;;;;;;5039667;28;22161;-72
2023/08/07 06:27:34;;;;;;;13.32;2.97;;;14.60;99.90;;;;;;5034991;28;20120;-72
2023/08/07 06:30:00;;;;;;;11.57;2.80;;;14.60;99.90;;;;;;5049637;28;20532;-73
2023/08/07 06:32:26;;;;;;;16.45;2.92;;;14.60;99.90;;;;;;5048847;28;20049;-72
2023/08/07 06:34:52;;;;;;;14.52;3.22;;;14.70;99.90;;;;;;5052300;28;20096;-72
2023/08/07 06:37:18;;;;;;;12.38;2.80;;;14.70;99.90;;;;;;5035111;28;20037;-72
2023/08/07 06:39:46;;;;;;;17.92;3.55;;;14.70;99.90;;;;;;5039343;28;20071;-73
2023/08/07 06:42:12;;;;;;;14.75;3.42;;;14.80;99.90;;;;;;5017444;28;20107;-74
2023/08/07 06:44:37;;;;;;;14.43;2.60;;;14.80;99.90;;;;;;5035152;28;20074;-73
2023/08/07 06:47:04;;;;;;;10.52;2.40;;;14.80;99.90;;;;;;5039997;28;20597;-73
2023/08/07 06:49:31;;;;;;;16.35;2.47;;;14.80;99.90;;;;;;5036427;28;20052;-73
2023/08/07 06:51:58;;;;;;;13.93;2.45;;;14.90;99.90;;;;;;5040506;28;20045;-73
2023/08/07 06:54:24;;;;;;;15.98;2.67;;;14.90;99.90;;;;;;5033595;28;20057;-72
2023/08/07 06:56:49;;;;;;;12.70;2.47;;;14.90;99.90;;;;;;5037065;28;20074;-73
2023/08/07 06:59:15;;;;;;;12.60;2.38;;;14.90;99.90;;;;;;5047110;28;20070;-71
2023/08/07 07:01:41;;;;;;;11.52;2.30;;;14.90;99.90;;;;;;5072031;28;21341;-71
2023/08/07 07:04:07;;;;;;;13.02;2.60;;;14.90;99.90;;;;;;5045788;28;20044;-73
2023/08/07 07:06:33;;;;;;;14.70;2.25;;;14.90;99.90;;;;;;5036228;28;21406;-73
2023/08/07 07:08:59;;;;;;;14.13;2.42;;;14.80;99.90;;;;;;5042344;28;20052;-73
2023/08/07 07:11:25;;;;;;;8.68;2.17;;;14.90;99.90;;;;;;5044076;28;20080;-73
2023/08/07 07:13:52;;;;;;;8.15;2.05;;;14.80;99.90;;;;;;5044978;28;20647;-73
2023/08/07 07:16:23;;;;;;;10.02;1.83;;;14.80;99.90;;;;;;5036213;28;20047;-73
2023/08/07 07:18:50;;;;;;;12.50;2.70;;;14.80;99.90;;;;;;5035692;28;20098;-72
2023/08/07 07:21:16;;;;;;;10.50;2.67;;;14.80;99.90;;;;;;5040319;28;20433;-72
2023/08/07 07:23:42;;;;;;;11.27;2.70;;;14.80;99.90;;;;;;5026324;28;20084;-71
2023/08/07 07:26:08;;;;;;;9.20;2.40;;;14.80;99.90;;;;;;5026696;28;20069;-72
2023/08/07 07:28:34;;;;;;;10.38;2.38;;;14.70;99.90;;;;;;5045016;28;20045;-72
2023/08/07 07:30:59;;;;;;;15.82;2.88;;;14.60;99.90;;;;;;5035273;28;20080;-72
2023/08/07 07:33:25;;;;;;;11.50;2.65;;;14.60;99.90;;;;;;5034921;28;20049;-72
2023/08/07 07:35:51;;;;;;;18.02;2.90;;;14.60;99.90;;;;;;5036988;28;20041;-73
2023/08/07 07:38:17;;;;;;;11.07;3.30;;;14.60;99.90;;;;;;5021961;28;20073;-72
2023/08/07 07:40:43;;;;;;;12.77;3.08;;;14.60;99.90;;;;;;5046068;28;20114;-72
2023/08/07 07:43:09;;;;;;;14.57;3.45;;;14.60;99.90;;;;;;5048123;28;20049;-72
2023/08/07 07:45:35;;;;;;;10.18;3.10;;;14.60;99.90;;;;;;5044992;28;20051;-72
2023/08/07 07:48:02;;;;;;;12.50;3.38;;;14.60;99.90;;;;;;5028119;28;20053;-71
2023/08/07 07:50:29;;;;;;;17.65;3.65;;;14.60;99.90;;;;;;5045941;28;20051;-71
2023/08/07 07:52:55;;;;;;;13.48;3.22;;;14.60;99.90;;;;;;5029528;28;20076;-72
2023/08/07 07:55:20;;;;;;;14.30;3.33;;;14.60;99.90;;;;;;5047291;28;20052;-71
2023/08/07 07:57:46;;;;;;;12.90;3.67;;;14.60;99.90;;;;;;5047386;28;20579;-71
2023/08/07 08:00:13;;;;;;;12.45;3.65;;;14.50;99.90;;;;;;5048145;28;20052;-72
2023/08/07 08:02:43;;;;;;;11.00;3.63;;;14.50;99.90;;;;;;5046664;28;20543;-72
2023/08/07 08:05:10;;;;;;;13.57;3.58;;;14.50;99.90;;;;;;5047730;28;20063;-72
2023/08/07 08:07:37;;;;;;;12.73;3.60;;;14.50;99.90;;;;;;5028522;28;20057;-72
2023/08/07 08:10:03;;;;;;;18.42;4.25;;;14.50;99.90;;;;;;5044545;28;20049;-72
2023/08/07 08:12:30;;;;;;;12.82;3.10;;;14.40;99.90;;;;;;5028511;28;20110;-72
2023/08/07 08:14:56;;;;;;;13.68;3.45;;;14.40;99.90;;;;;;5045125;28;20098;-72
2023/08/07 08:17:23;;;;;;;12.48;3.53;;;14.40;99.90;;;;;;5045696;28;20044;-72
2023/08/07 08:19:49;;;;;;;15.52;3.55;;;14.40;99.90;;;;;;5027658;28;20510;-72
2023/08/07 08:22:15;;;;;;;14.02;3.80;;;14.40;99.90;;;;;;5046518;28;20097;-73
2023/08/07 08:24:41;;;;;;;16.42;3.65;;;14.50;99.90;;;;;;5029567;28;20063;-72
2023/08/07 08:27:06;;;;;;;13.02;3.05;;;14.50;99.90;;;;;;5045369;28;20052;-71
2023/08/07 08:29:32;;;;;;;16.52;3.47;;;14.60;99.90;;;;;;5045846;28;20044;-72
2023/08/07 08:31:58;;;;;;;16.38;3.50;;;14.80;99.90;;;;;;5045111;28;20045;-71
2023/08/07 08:34:26;;;;;;;12.55;3.55;;;14.90;99.90;;;;;;5045614;28;20589;-72
2023/08/07 08:36:52;;;;;;;15.40;3.28;;;15.00;99.90;;;;;;5046849;28;20132;-72
2023/08/07 08:39:18;;;;;;;14.73;4.53;;;15.20;99.90;;;;;;5045730;28;20179;-72
2023/08/07 08:41:47;;;;;;;16.88;3.13;;;15.30;99.90;;;;;;5037937;28;20033;-71
2023/08/07 08:44:15;;;;;;;18.05;3.05;;;15.50;99.90;;;;;;5043396;28;20082;-72
2023/08/07 08:46:43;;;;;;;11.35;2.70;;;15.60;99.90;;;;;;5026240;28;20049;-71
2023/08/07 08:49:10;;;;;;;13.93;2.83;;;15.60;99.90;;;;;;5044302;28;20544;-73
2023/08/07 08:51:37;;;;;;;14.40;2.50;;;15.60;99.90;;;;;;5041425;28;20068;-72
2023/08/07 08:54:03;;;;;;;18.10;3.30;;;15.70;99.90;;;;;;5045412;28;20761;-72
2023/08/07 08:56:30;;;;;;;9.68;2.30;;;15.70;99.90;;;;;;5045725;28;20041;-72
2023/08/07 08:58:56;;;;;;;11.70;2.63;;;15.70;99.90;;;;;;5044914;28;20045;-73
2023/08/07 09:01:23;;;;;;;12.05;2.58;;;15.80;99.90;;;;;;5030448;28;20067;-73
2023/08/07 09:03:49;;;;;;;8.13;2.13;;;15.80;99.90;;;;;;5043490;28;20074;-73
2023/08/07 09:06:15;;;;;;;10.35;2.38;;;15.90;99.90;;;;;;5042599;28;20650;-73
2023/08/07 09:08:42;;;;;;;9.75;2.53;;;15.90;99.90;;;;;;5042801;28;20044;-73
2023/08/07 09:11:08;;;;;;;13.85;2.47;;;16.00;99.90;;;;;;5024017;28;20041;-73
2023/08/07 09:13:38;;;;;;;16.40;2.47;;;16.00;99.90;;;;;;5047326;28;20462;-73
2023/08/07 09:16:06;;;;;;;12.27;2.28;;;16.10;99.90;;;;;;5046017;28;20037;-73
2023/08/07 09:18:32;;;;;;;9.27;2.10;;;16.20;99.90;;;;;;5045472;28;20069;-73
2023/08/07 09:20:58;;;;;;;14.70;3.05;;;16.30;99.90;;;;;;5045206;28;20103;-74
2023/08/07 09:23:24;;;;;;;16.83;3.10;;;16.30;99.90;;;;;;5044760;28;20510;-73
2023/08/07 09:25:59;;;;;;;13.75;2.92;;;16.30;99.90;;;;;;5045008;28;20132;-73
2023/08/07 09:28:26;;;;;;;15.10;2.70;;;16.30;99.90;;;;;;5047822;28;20472;-73
2023/08/07 09:30:52;;;;;;;14.75;3.17;;;16.30;99.90;;;;;;5038040;28;20776;-74
2023/08/07 09:33:28;;;;;;;10.80;2.50;;;16.30;99.90;;;;;;5024891;28;20143;-74
2023/08/07 09:36:01;;;;;;;13.13;2.95;;;16.30;99.90;;;;;;5042854;28;20076;-73
2023/08/07 09:38:33;;;;;;;10.50;2.42;;;16.20;99.90;;;;;;5027519;28;20059;-74
2023/08/07 09:41:04;;;;;;;15.68;3.05;;;16.30;99.90;;;;;;5035586;28;20626;-72
2023/08/07 09:43:36;;;;;;;8.97;2.57;;;16.30;99.90;;;;;;5041249;28;20056;-73
2023/08/07 09:46:07;;;;;;;10.15;2.40;;;16.40;99.90;;;;;;5040260;28;20128;-72
2023/08/07 09:48:40;;;;;;;11.43;2.90;;;16.50;99.90;;;;;;5047030;28;20537;-73
2023/08/07 09:51:06;;;;;;;10.75;2.10;;;16.60;99.90;;;;;;5080349;28;20324;-72
2023/08/07 09:53:32;;;;;;;10.50;3.00;;;16.60;99.90;;;;;;5045798;28;20056;-72
2023/08/07 09:55:58;;;;;;;8.23;2.53;;;16.50;99.90;;;;;;5041037;28;20049;-73
2023/08/07 09:58:24;;;;;;;11.30;2.58;;;16.50;99.90;;;;;;5053097;28;20040;-73
2023/08/07 10:00:55;;;;;;;13.18;2.75;;;16.50;99.90;;;;;;5031186;28;20444;-73
2023/08/07 10:03:22;;;;;;;11.68;2.15;;;16.40;99.90;;;;;;5052734;28;20118;-74
2023/08/07 10:05:48;;;;;;;11.18;2.53;;;16.30;99.90;;;;;;5048515;28;20041;-75
2023/08/07 10:08:15;;;;;;;15.32;3.03;;;16.30;99.90;;;;;;5022686;28;20048;-73
2023/08/07 10:10:41;;;;;;;14.40;3.10;;;16.30;99.90;;;;;;5051587;28;20132;-74
2023/08/07 10:13:08;;;;;;;17.20;3.45;;;16.30;99.90;;;;;;5049645;28;20116;-75
2023/08/07 10:15:37;;;;;;;9.75;2.90;;;16.30;99.90;;;;;;5051317;28;20065;-74
2023/08/07 10:18:04;;;;;;;10.45;2.63;;;16.30;99.90;;;;;;5027595;28;20414;-73
2023/08/07 10:20:30;;;;;;;15.30;3.00;;;16.30;99.90;;;;;;5036322;28;20399;-75
2023/08/07 10:23:08;;;;;;;13.70;2.80;;;16.40;99.90;;;;;;5036327;28;20063;-74
2023/08/07 10:25:35;;;;;;;12.95;2.70;;;16.40;99.90;;;;;;5043826;28;20413;-76
2023/08/07 10:28:03;;;;;;;11.07;2.28;;;16.40;99.90;;;;;;5041542;28;20055;-74
2023/08/07 10:30:30;;;;;;;9.57;2.50;;;16.50;99.90;;;;;;5068452;28;20045;-75
2023/08/07 10:32:58;;;;;;;10.98;2.40;;;16.50;99.90;;;;;;5043559;28;20083;-74
2023/08/07 10:35:30;;;;;;;11.30;2.50;;;16.50;99.90;;;;;;5078953;28;20136;-74
2023/08/07 10:38:09;;;;;;;12.48;2.60;;;16.60;99.90;;;;;;5046469;28;20118;-75
2023/08/07 10:41:01;;;;;;;10.45;2.50;;;16.70;99.90;;;;;;5022429;28;20044;-75
2023/08/07 10:43:28;;;;;;;13.27;2.55;;;16.80;99.90;;;;;;5046373;28;20462;-74
2023/08/07 10:46:02;;;;;;;9.07;2.05;;;16.90;99.90;;;;;;5046755;28;20053;-74
2023/08/07 10:48:28;;;;;;;7.68;1.65;;;16.90;99.90;;;;;;5046340;28;20060;-75
2023/08/07 10:50:53;;;;;;;7.78;1.92;;;16.90;99.90;;;;;;5046699;28;20048;-74
2023/08/07 10:53:34;;;;;;;8.50;1.83;;;16.90;99.90;;;;;;5030213;28;20049;-76
2023/08/07 10:56:07;;;;;;;11.23;2.10;;;17.00;99.90;;;;;;5030276;28;20045;-74
2023/08/07 10:58:40;;;;;;;7.82;2.00;;;17.10;99.90;;;;;;5046048;28;20033;-73
2023/08/07 11:01:32;;;;;;;10.20;1.85;;;17.10;99.90;;;;;;5046097;28;20053;-73
2023/08/07 11:04:00;;;;;;;7.47;1.90;;;17.10;99.90;;;;;;5048036;28;20331;-74
2023/08/07 11:06:34;;;;;;;9.23;1.80;;;17.10;99.90;;;;;;5046814;28;20752;-74
2023/08/07 11:09:20;;;;;;;9.90;2.45;;;17.10;99.90;;;;;;5047097;28;20056;-73
2023/08/07 11:11:48;;;;;;;6.65;1.98;;;17.20;99.90;;;;;;5047133;28;20052;-75
2023/08/07 11:14:18;;;;;;;9.63;2.00;;;17.20;99.90;;;;;;5048561;28;20051;-74
2023/08/07 11:16:46;;;;;;;9.30;1.83;;;17.20;99.90;;;;;;5040766;28;20069;-75
2023/08/07 11:19:14;;;;;;;9.48;1.88;;;17.10;99.90;;;;;;5047044;28;20076;-75
2023/08/07 11:21:40;;;;;;;10.45;2.10;;;17.10;99.90;;;;;;5031062;28;20052;-74
2023/08/07 11:24:06;;;;;;;8.85;1.75;;;17.10;99.90;;;;;;5047443;28;20040;-75
2023/08/07 11:26:32;;;;;;;10.60;2.33;;;17.00;99.90;;;;;;5047047;28;20549;-74
2023/08/07 11:28:58;;;;;;;11.13;2.78;;;17.00;99.90;;;;;;5046949;28;20048;-75
2023/08/07 11:31:25;;;;;;;9.35;2.13;;;17.00;99.90;;;;;;5030349;28;20044;-75
2023/08/07 11:33:52;;;;;;;11.27;2.75;;;17.00;99.90;;;;;;5046819;28;20041;-75
2023/08/07 11:36:18;;;;;;;9.38;2.22;;;17.00;99.90;;;;;;5030359;28;20410;-75
2023/08/07 11:38:44;;;;;;;11.93;2.30;;;17.00;99.90;;;;;;5029634;28;20049;-75
2023/08/07 11:41:12;;;;;;;11.57;2.33;;;17.00;99.90;;;;;;5046770;28;20068;-75
2023/08/07 11:43:39;;;;;;;12.68;2.65;;;17.00;99.90;;;;;;5046495;28;20665;-75
2023/08/07 11:46:06;;;;;;;11.45;2.33;;;17.00;99.90;;;;;;5048113;28;20049;-75
2023/08/07 11:48:34;;;;;;;12.10;1.92;;;17.00;99.90;;;;;;5046552;28;20375;-75
2023/08/07 11:51:00;;;;;;;12.88;2.50;;;16.90;99.90;;;;;;5030201;28;20049;-74
2023/08/07 11:53:28;;;;;;;8.90;2.08;;;16.90;99.90;;;;;;5046554;28;20044;-75
2023/08/07 11:56:09;;;;;;;9.40;2.60;;;16.90;99.90;;;;;;5030178;28;20074;-74
2023/08/07 11:58:38;;;;;;;10.95;3.08;;;16.80;99.90;;;;;;5029847;28;20083;-75
2023/08/07 12:01:15;;;;;;;12.23;2.42;;;16.80;99.90;;;;;;5030181;28;20037;-74
2023/08/07 12:03:56;;;;;;;10.18;2.28;;;16.70;99.90;;;;;;5045775;28;20095;-73
2023/08/07 12:06:26;;;;;;;13.23;2.45;;;16.70;99.90;;;;;;5046066;28;20033;-73
2023/08/07 12:08:56;;;;;;;10.75;2.40;;;16.60;99.90;;;;;;5046129;28;20518;-73
2023/08/07 12:11:22;;;;;;;9.93;2.33;;;16.60;99.90;;;;;;5047317;28;20048;-73
2023/08/07 12:13:48;;;;;;;8.82;2.25;;;16.40;99.90;;;;;;5047133;28;20498;-72
2023/08/07 12:16:15;;;;;;;7.65;2.13;;;16.20;99.90;;;;;;5047237;28;20128;-72
2023/08/07 12:18:46;;;;;;;8.27;2.30;;;16.10;99.90;;;;;;5045530;28;20048;-72
2023/08/07 12:21:15;;;;;;;8.82;2.10;;;16.00;99.90;;;;;;5046009;28;20051;-73
2023/08/07 12:23:41;;;;;;;9.18;2.67;;;16.00;99.90;;;;;;5047188;28;21361;-72
2023/08/07 12:26:07;;;;;;;10.63;2.28;;;15.90;99.90;;;;;;5022107;28;20041;-71
2023/08/07 12:28:36;;;;;;;9.63;2.17;;;16.00;99.90;;;;;;5045848;28;20037;-73
2023/08/07 12:31:02;;;;;;;6.88;2.30;;;16.00;99.90;;;;;;5047264;28;20083;-72
2023/08/07 12:33:31;;;;;;;7.50;2.22;;;16.10;99.90;;;;;;5029132;28;20135;-73
2023/08/07 12:35:58;;;;;;;9.10;2.17;;;16.20;99.90;;;;;;5047599;28;20506;-72
2023/08/07 12:38:25;;;;;;;9.48;2.30;;;16.30;99.90;;;;;;5045811;28;20056;-73
2023/08/07 12:40:51;;;;;;;8.55;2.20;;;16.40;99.90;;;;;;5046912;28;20053;-74